Time;durP1;ratioP1;P1;durP2;ratioP2;P2;SDS_P1;SDS_P2;PMS_P1;PMS_P2;Temp;Humidity;BMP_temperature;BMP_pressure;BME280_temperature;BME280_humidity;BME280_pressure;Samples;Min_cycle;Max_cycle;Signal;HPM_P1;HPM_P2
2023/12/01 00:00:56;;;;;;;32.25;15.15;;;0.40;99.90;;;;;;5134726;27;20123;-67
2023/12/01 00:03:21;;;;;;;32.50;15.13;;;0.20;99.90;;;;;;5126308;27;20083;-67
2023/12/01 00:05:47;;;;;;;34.65;15.20;;;0.90;99.90;;;;;;5107848;27;20054;-67
2023/12/01 00:08:13;;;;;;;33.65;15.30;;;0.30;99.90;;;;;;5129001;27;20046;-67
2023/12/01 00:10:38;;;;;;;19.55;13.32;;;0.30;99.90;;;;;;5110069;27;20373;-67
2023/12/01 00:13:04;;;;;;;33.55;15.43;;;0.30;99.90;;;;;;5143453;27;20046;-67
2023/12/01 00:15:30;;;;;;;31.98;15.48;;;0.20;99.90;;;;;;5133238;27;20071;-67
2023/12/01 00:17:55;;;;;;;24.48;13.50;;;0.20;99.90;;;;;;5144174;27;20035;-67
2023/12/01 00:20:21;;;;;;;31.15;15.75;;;0.60;99.90;;;;;;5112955;27;20038;-67
2023/12/01 00:22:47;;;;;;;33.08;18.23;;;0.20;99.90;;;;;;5143509;27;20024;-67
2023/12/01 00:25:13;;;;;;;31.98;15.23;;;0.20;99.90;;;;;;5127799;27;20043;-67
2023/12/01 00:27:38;;;;;;;34.70;15.38;;;0.20;99.90;;;;;;5124597;27;20035;-67
2023/12/01 00:30:05;;;;;;;30.92;15.80;;;0.80;99.90;;;;;;5089611;27;20104;-67
2023/12/01 00:32:30;;;;;;;32.33;15.35;;;0.10;99.90;;;;;;5125387;27;20121;-67
2023/12/01 00:34:56;;;;;;;29.55;15.02;;;0.10;99.90;;;;;;5144048;27;20043;-67
2023/12/01 00:37:22;;;;;;;37.72;15.20;;;0.60;99.90;;;;;;5140490;27;20054;-67
2023/12/01 00:39:47;;;;;;;28.83;13.52;;;0.10;99.90;;;;;;5093490;27;20050;-67
2023/12/01 00:42:13;;;;;;;22.08;12.82;;;0.10;99.90;;;;;;5132150;27;20054;-67
2023/12/01 00:44:39;;;;;;;26.10;13.50;;;0.50;99.90;;;;;;5086847;28;20563;-67
2023/12/01 00:47:05;;;;;;;24.85;12.98;;;0.10;99.90;;;;;;5112152;27;20057;-67
2023/12/01 00:49:31;;;;;;;24.27;13.02;;;0.10;99.90;;;;;;5087324;28;20048;-67
2023/12/01 00:51:57;;;;;;;28.63;13.45;;;0.10;99.90;;;;;;5124969;27;20046;-67
2023/12/01 00:54:23;;;;;;;24.38;13.07;;;0.10;99.90;;;;;;5143764;27;20035;-66
2023/12/01 00:56:49;;;;;;;23.90;13.02;;;0.10;99.90;;;;;;5138466;27;20448;-67
2023/12/01 00:59:14;;;;;;;23.48;13.13;;;0.10;99.90;;;;;;5125840;27;20047;-67
2023/12/01 01:01:40;;;;;;;24.05;11.63;;;0.10;99.90;;;;;;5142550;27;20038;-67
2023/12/01 01:04:06;;;;;;;23.10;11.52;;;0.10;99.90;;;;;;5125844;27;20059;-67
2023/12/01 01:06:32;;;;;;;23.60;12.77;;;0.20;99.90;;;;;;5142897;27;20046;-67
2023/12/01 01:08:57;;;;;;;22.60;12.48;;;0.10;99.90;;;;;;5121812;28;20074;-67
2023/12/01 01:11:23;;;;;;;21.75;13.13;;;0.00;99.90;;;;;;5115683;28;20047;-67
2023/12/01 01:13:49;;;;;;;21.05;11.77;;;0.00;99.90;;;;;;5124710;27;20179;-67
2023/12/01 01:16:15;;;;;;;18.95;11.68;;;0.50;99.90;;;;;;5125614;27;20072;-67
2023/12/01 01:18:41;;;;;;;17.75;11.35;;;0.00;99.90;;;;;;5119767;28;20035;-67
2023/12/01 01:21:06;;;;;;;17.63;10.73;;;0.00;99.90;;;;;;5136815;27;20092;-67
2023/12/01 01:23:32;;;;;;;21.17;10.57;;;0.00;99.90;;;;;;5125963;27;20046;-67
2023/12/01 01:25:58;;;;;;;14.88;8.70;;;-0.10;99.90;;;;;;5104567;28;20375;-68
2023/12/01 01:28:24;;;;;;;16.75;8.95;;;0.00;99.90;;;;;;5124199;27;20047;-68
2023/12/01 01:30:49;;;;;;;15.10;8.98;;;0.10;99.90;;;;;;5124365;27;20043;-68
2023/12/01 01:33:15;;;;;;;17.48;11.35;;;-0.10;99.90;;;;;;5125056;27;20046;-68
2023/12/01 01:35:41;;;;;;;17.40;10.38;;;0.10;99.90;;;;;;5142191;27;20125;-68
2023/12/01 01:38:07;;;;;;;14.90;9.13;;;-0.20;99.90;;;;;;5124892;27;20035;-68
2023/12/01 01:40:32;;;;;;;16.55;9.25;;;-0.20;99.90;;;;;;5141774;27;20047;-68
2023/12/01 01:42:59;;;;;;;20.25;10.32;;;-0.20;99.90;;;;;;5142871;27;20051;-68
2023/12/01 01:45:24;;;;;;;18.90;9.73;;;0.30;99.90;;;;;;5142295;27;20043;-68
2023/12/01 01:47:52;;;;;;;14.75;9.10;;;-0.20;99.90;;;;;;5076816;28;20078;-68
2023/12/01 01:50:22;;;;;;;13.63;9.18;;;-0.20;99.90;;;;;;5129677;27;20069;-68
2023/12/01 01:52:49;;;;;;;15.80;9.25;;;-0.30;99.90;;;;;;5141858;27;20071;-68
2023/12/01 01:55:14;;;;;;;17.92;10.23;;;-0.30;99.90;;;;;;5124717;27;20068;-68
2023/12/01 01:57:45;;;;;;;19.48;9.90;;;-0.30;99.90;;;;;;5141365;27;20066;-68
2023/12/01 02:00:16;;;;;;;17.00;8.95;;;0.30;99.90;;;;;;5124652;27;20050;-68
2023/12/01 02:02:42;;;;;;;16.02;9.10;;;-0.40;99.90;;;;;;5142200;27;20047;-68
2023/12/01 02:05:13;;;;;;;18.73;9.43;;;-0.40;99.90;;;;;;5142582;27;20035;-68
2023/12/01 02:07:40;;;;;;;16.70;9.30;;;0.10;99.90;;;;;;5107405;27;20035;-68
2023/12/01 02:10:06;;;;;;;16.65;9.32;;;-0.40;99.90;;;;;;5141692;27;20049;-68
2023/12/01 02:12:32;;;;;;;13.43;8.68;;;-0.40;99.90;;;;;;5142530;27;20511;-68
2023/12/01 02:14:58;;;;;;;14.43;8.35;;;-0.40;99.90;;;;;;5117676;27;20057;-69
2023/12/01 02:17:23;;;;;;;17.15;9.98;;;-0.50;99.90;;;;;;5139257;27;20096;-68
2023/12/01 02:19:51;;;;;;;17.85;9.55;;;-0.50;99.90;;;;;;5123200;27;20047;-68
2023/12/01 02:22:17;;;;;;;18.27;10.13;;;-0.50;99.90;;;;;;5123307;27;20043;-69
2023/12/01 02:24:43;;;;;;;16.88;9.50;;;-0.50;99.90;;;;;;5123954;27;20031;-69
2023/12/01 02:27:09;;;;;;;16.98;9.25;;;-0.50;99.90;;;;;;5141221;27;20100;-68
2023/12/01 02:29:34;;;;;;;18.88;10.30;;;-0.50;99.90;;;;;;5115197;28;20043;-67
2023/12/01 02:32:00;;;;;;;19.52;10.35;;;-0.60;99.90;;;;;;5102973;27;20051;-67
2023/12/01 02:34:26;;;;;;;15.20;9.75;;;-0.40;99.90;;;;;;5128601;27;20074;-67
2023/12/01 02:36:53;;;;;;;18.05;9.88;;;-0.60;99.90;;;;;;5132572;27;20035;-67
2023/12/01 02:39:19;;;;;;;16.90;9.70;;;-0.60;99.90;;;;;;5119833;27;20055;-67
2023/12/01 02:41:45;;;;;;;19.33;9.80;;;-0.40;99.90;;;;;;5124065;28;20030;-67
2023/12/01 02:44:11;;;;;;;18.63;10.10;;;-0.60;99.90;;;;;;5122527;27;20063;-67
2023/12/01 02:46:36;;;;;;;18.63;10.38;;;-0.60;99.90;;;;;;5103353;28;20514;-67
2023/12/01 02:49:02;;;;;;;17.38;10.15;;;0.20;99.90;;;;;;5131817;27;20047;-67
2023/12/01 02:51:28;;;;;;;15.27;9.50;;;-0.70;99.90;;;;;;5103106;28;20035;-68
2023/12/01 02:53:54;;;;;;;13.73;8.43;;;-0.70;99.90;;;;;;5132399;28;20123;-67
2023/12/01 02:56:19;;;;;;;17.90;10.00;;;-0.50;99.90;;;;;;5141687;28;20058;-68
2023/12/01 02:58:45;;;;;;;16.90;10.45;;;-0.70;99.90;;;;;;5106844;28;20074;-68
2023/12/01 03:01:11;;;;;;;18.13;9.65;;;-0.80;99.90;;;;;;5122520;28;20047;-68
2023/12/01 03:03:36;;;;;;;16.45;8.77;;;-0.80;99.90;;;;;;5124170;28;20035;-67
2023/12/01 03:06:03;;;;;;;17.05;8.65;;;-0.90;99.90;;;;;;5122423;28;20099;-67
2023/12/01 03:08:29;;;;;;;15.85;9.07;;;-0.90;99.90;;;;;;5139236;28;20070;-67
2023/12/01 03:10:55;;;;;;;14.05;8.13;;;-1.00;99.90;;;;;;5141101;27;20035;-67
2023/12/01 03:13:22;;;;;;;15.88;8.23;;;-1.00;99.90;;;;;;5102520;28;20036;-67
2023/12/01 03:15:49;;;;;;;15.20;8.35;;;-1.00;99.90;;;;;;5122830;28;20047;-67
2023/12/01 03:18:15;;;;;;;16.00;8.85;;;-1.00;99.90;;;;;;5140286;28;20054;-67
2023/12/01 03:20:41;;;;;;;16.83;9.00;;;-0.80;99.90;;;;;;5123495;28;20054;-68
2023/12/01 03:23:06;;;;;;;18.85;9.23;;;-1.10;99.90;;;;;;5122087;28;20043;-68
2023/12/01 03:25:33;;;;;;;15.68;9.05;;;-1.10;99.90;;;;;;5112638;28;20100;-68
2023/12/01 03:27:58;;;;;;;18.70;9.90;;;-1.10;99.90;;;;;;5122481;28;20039;-68
2023/12/01 03:30:24;;;;;;;17.02;9.52;;;-1.20;99.90;;;;;;5122902;28;20047;-68
2023/12/01 03:32:51;;;;;;;16.35;8.85;;;-1.20;99.90;;;;;;5126859;28;20039;-68
2023/12/01 03:35:22;;;;;;;17.70;10.30;;;-1.20;99.90;;;;;;5140834;28;20499;-68
2023/12/01 03:37:49;;;;;;;16.27;9.77;;;-1.20;99.90;;;;;;5141751;28;20031;-68
2023/12/01 03:40:15;;;;;;;19.65;9.93;;;-1.10;99.90;;;;;;5139921;28;20064;-68
2023/12/01 03:42:45;;;;;;;21.70;11.45;;;-1.20;99.90;;;;;;5123081;28;20061;-68
2023/12/01 03:45:12;;;;;;;20.65;11.45;;;-1.20;99.90;;;;;;5140592;28;20039;-68
2023/12/01 03:47:45;;;;;;;19.85;10.73;;;-1.10;99.90;;;;;;5103837;28;20047;-68
2023/12/01 03:50:11;;;;;;;20.98;10.65;;;-1.10;99.90;;;;;;5143209;27;20108;-68
2023/12/01 03:52:46;;;;;;;19.98;10.55;;;-1.10;99.90;;;;;;5134201;27;20122;-68
2023/12/01 03:55:13;;;;;;;18.80;10.23;;;-1.10;99.90;;;;;;5124028;28;20126;-69
2023/12/01 03:57:39;;;;;;;18.77;10.88;;;-1.30;99.90;;;;;;5139213;27;20075;-69
2023/12/01 04:00:13;;;;;;;21.15;10.15;;;-1.20;99.90;;;;;;5145213;27;20122;-69
2023/12/01 04:02:41;;;;;;;19.13;10.60;;;-1.20;99.90;;;;;;5122600;28;20040;-69
2023/12/01 04:05:07;;;;;;;22.95;11.60;;;-0.70;99.90;;;;;;5105788;28;20044;-69
2023/12/01 04:07:38;;;;;;;22.92;10.73;;;-1.20;99.90;;;;;;5144168;27;20043;-68
2023/12/01 04:10:10;;;;;;;20.40;10.60;;;-1.20;99.90;;;;;;5144216;27;20078;-69
2023/12/01 04:12:45;;;;;;;20.25;10.70;;;-1.30;99.90;;;;;;5145364;27;20036;-69
2023/12/01 04:15:15;;;;;;;20.75;11.02;;;-1.30;99.90;;;;;;5125864;27;20391;-69
2023/12/01 04:17:42;;;;;;;21.73;11.90;;;-1.30;99.90;;;;;;5104985;28;20054;-69
2023/12/01 04:20:35;;;;;;;22.83;11.02;;;-1.40;99.90;;;;;;5144341;27;20051;-69
2023/12/01 04:23:11;;;;;;;19.88;10.52;;;-1.40;99.90;;;;;;5142545;27;20425;-69
2023/12/01 04:25:44;;;;;;;23.33;12.10;;;-1.40;99.90;;;;;;5142673;27;20093;-69
2023/12/01 04:28:11;;;;;;;20.13;9.63;;;-1.40;99.90;;;;;;5129886;27;20035;-68
2023/12/01 04:30:36;;;;;;;24.15;11.38;;;-1.50;99.90;;;;;;5142169;27;20052;-69
2023/12/01 04:33:02;;;;;;;20.52;11.00;;;-1.50;99.90;;;;;;5123850;27;20054;-69
2023/12/01 04:35:30;;;;;;;18.48;10.57;;;-1.50;99.90;;;;;;5143370;27;20046;-69
2023/12/01 04:37:57;;;;;;;25.55;12.15;;;-1.40;99.90;;;;;;5144739;27;20024;-68
2023/12/01 04:40:24;;;;;;;20.80;11.10;;;-1.50;99.90;;;;;;5143353;27;20071;-69
2023/12/01 04:42:57;;;;;;;20.25;10.43;;;-1.50;99.90;;;;;;5144218;27;20043;-69
2023/12/01 04:45:32;;;;;;;19.45;10.27;;;-1.50;99.90;;;;;;5143710;27;20051;-69
2023/12/01 04:47:58;;;;;;;24.02;10.38;;;-1.50;99.90;;;;;;5123556;27;20067;-69
2023/12/01 04:50:29;;;;;;;20.83;9.23;;;-1.50;99.90;;;;;;5126279;27;20043;-69
2023/12/01 04:53:00;;;;;;;20.02;10.90;;;-1.50;99.90;;;;;;5124357;27;20050;-69
2023/12/01 04:55:28;;;;;;;23.85;10.40;;;-1.50;99.90;;;;;;5144387;27;20031;-69
2023/12/01 04:57:54;;;;;;;16.10;10.48;;;-1.50;99.90;;;;;;5124627;27;20111;-69
2023/12/01 05:00:22;;;;;;;21.25;11.18;;;-1.50;99.90;;;;;;5124828;27;20054;-69
2023/12/01 05:03:15;;;;;;;25.38;11.48;;;-1.50;99.90;;;;;;5125328;27;20043;-69
2023/12/01 05:05:41;;;;;;;25.70;11.05;;;-1.50;99.90;;;;;;5119308;27;20055;-69
2023/12/01 05:08:09;;;;;;;23.95;11.38;;;-1.60;99.90;;;;;;5124907;27;20068;-69
2023/12/01 05:10:37;;;;;;;20.20;10.25;;;-1.60;99.90;;;;;;5124175;27;20050;-69
2023/12/01 05:13:05;;;;;;;22.52;10.52;;;-1.60;99.90;;;;;;5143621;27;20047;-69
2023/12/01 05:15:32;;;;;;;21.52;10.30;;;-3.00;99.90;;;;;;5143303;27;20042;-69
2023/12/01 05:18:06;;;;;;;18.55;10.05;;;-1.60;99.90;;;;;;5124320;27;20047;-69
2023/12/01 05:20:32;;;;;;;24.08;11.30;;;-1.60;99.90;;;;;;5125184;27;20075;-69
2023/12/01 05:23:00;;;;;;;25.23;11.30;;;-1.40;99.90;;;;;;5142284;27;20043;-69
2023/12/01 05:25:28;;;;;;;20.90;10.05;;;-1.50;99.90;;;;;;5143880;27;20046;-69
2023/12/01 05:27:54;;;;;;;17.90;9.75;;;0.10;99.90;;;;;;5110209;27;20422;-69
2023/12/01 05:30:23;;;;;;;22.45;10.18;;;-1.60;99.90;;;;;;5143391;27;20047;-69
2023/12/01 05:32:50;;;;;;;21.77;10.65;;;-1.60;99.90;;;;;;5143810;27;20047;-69
2023/12/01 05:35:16;;;;;;;20.50;9.60;;;-1.60;99.90;;;;;;5120620;28;20031;-69
2023/12/01 05:37:50;;;;;;;18.25;8.98;;;-1.70;99.90;;;;;;5137622;27;20353;-69
2023/12/01 05:40:17;;;;;;;17.63;9.23;;;-1.70;99.90;;;;;;5111432;27;20043;-70
2023/12/01 05:42:44;;;;;;;17.50;9.80;;;-1.70;99.90;;;;;;5125581;27;20455;-69
2023/12/01 05:45:11;;;;;;;16.38;8.48;;;-1.70;99.90;;;;;;5140322;27;20111;-69
2023/12/01 05:47:44;;;;;;;15.27;7.90;;;-1.70;99.90;;;;;;5114334;27;20060;-69
2023/12/01 05:50:19;;;;;;;20.00;9.35;;;-1.20;99.90;;;;;;5142893;27;20038;-70
2023/12/01 05:52:46;;;;;;;15.20;8.48;;;-1.90;99.90;;;;;;5106280;27;20047;-70
2023/12/01 05:55:16;;;;;;;16.88;8.10;;;-2.00;99.90;;;;;;5107550;27;20039;-69
2023/12/01 05:57:45;;;;;;;13.18;7.25;;;-2.70;99.90;;;;;;5142050;27;20036;-70
2023/12/01 06:00:17;;;;;;;16.65;8.50;;;-2.20;99.90;;;;;;5138447;27;20035;-70
2023/12/01 06:02:44;;;;;;;16.20;8.90;;;-2.20;99.90;;;;;;5142058;27;20053;-70
2023/12/01 06:05:11;;;;;;;14.95;8.85;;;-2.20;99.90;;;;;;5142278;27;20051;-70
2023/12/01 06:07:37;;;;;;;18.17;8.55;;;-2.20;99.90;;;;;;5142753;27;20050;-70
2023/12/01 06:10:06;;;;;;;17.38;9.85;;;-2.20;99.90;;;;;;5105616;27;20067;-70
2023/12/01 06:12:37;;;;;;;15.07;8.82;;;-2.20;99.90;;;;;;5123737;27;20035;-71
2023/12/01 06:15:05;;;;;;;23.30;9.60;;;-2.30;99.90;;;;;;5123063;27;20039;-70
2023/12/01 06:17:31;;;;;;;19.13;9.95;;;-2.30;99.90;;;;;;5123681;27;20099;-70
2023/12/01 06:19:57;;;;;;;15.93;8.60;;;-2.40;99.90;;;;;;5123857;27;20047;-69
2023/12/01 06:22:23;;;;;;;14.15;8.23;;;-2.40;99.90;;;;;;5125508;27;20067;-70
2023/12/01 06:24:49;;;;;;;16.00;8.50;;;-2.40;99.90;;;;;;5110973;27;20042;-69
2023/12/01 06:27:15;;;;;;;14.07;7.65;;;-2.50;99.90;;;;;;5123018;27;20402;-70
2023/12/01 06:29:41;;;;;;;15.18;8.82;;;-2.50;99.90;;;;;;5107194;27;20490;-70
2023/12/01 06:32:06;;;;;;;16.23;8.50;;;-2.50;99.90;;;;;;5110065;27;20067;-70
2023/12/01 06:34:33;;;;;;;15.48;8.60;;;-2.50;99.90;;;;;;5124150;27;20047;-70
2023/12/01 06:36:59;;;;;;;18.20;8.98;;;-2.50;99.90;;;;;;5141726;27;20050;-70
2023/12/01 06:39:28;;;;;;;18.63;9.00;;;-2.50;99.90;;;;;;5123008;27;20035;-70
2023/12/01 06:41:54;;;;;;;16.25;8.50;;;-2.50;99.90;;;;;;5086635;28;20429;-70
2023/12/01 06:44:20;;;;;;;13.02;7.45;;;-2.50;99.90;;;;;;5092507;28;20060;-70
2023/12/01 06:46:46;;;;;;;15.20;8.35;;;-2.50;99.90;;;;;;5108075;28;20055;-70
2023/12/01 06:49:12;;;;;;;13.00;7.38;;;-2.30;99.90;;;;;;5114458;28;20535;-70
2023/12/01 06:51:38;;;;;;;14.70;8.23;;;-2.60;99.90;;;;;;5121304;28;20053;-70
2023/12/01 06:54:04;;;;;;;14.32;6.80;;;-2.60;99.90;;;;;;5121182;28;20091;-70
2023/12/01 06:56:30;;;;;;;13.40;7.88;;;-2.60;99.90;;;;;;5099144;28;20079;-70
2023/12/01 06:58:55;;;;;;;15.77;8.82;;;-2.70;99.90;;;;;;5112333;28;20191;-70
2023/12/01 07:01:21;;;;;;;12.73;7.13;;;-2.80;99.90;;;;;;5118197;28;20046;-70
2023/12/01 07:03:47;;;;;;;13.55;7.65;;;-2.80;99.90;;;;;;5119884;28;20044;-70
2023/12/01 07:06:14;;;;;;;12.35;6.57;;;-2.70;99.90;;;;;;5085507;28;20036;-70
2023/12/01 07:08:40;;;;;;;14.27;7.93;;;-2.80;99.90;;;;;;5119880;28;20043;-70
2023/12/01 07:11:06;;;;;;;12.00;7.40;;;-2.80;99.90;;;;;;5102787;28;20043;-70
2023/12/01 07:13:33;;;;;;;11.63;6.75;;;-2.80;99.90;;;;;;5102238;28;20047;-70
2023/12/01 07:15:58;;;;;;;11.77;7.32;;;-2.30;99.90;;;;;;5121966;28;20071;-70
2023/12/01 07:18:25;;;;;;;10.68;7.47;;;-2.80;99.90;;;;;;5120756;28;20051;-70
2023/12/01 07:20:51;;;;;;;14.15;7.07;;;-2.80;99.90;;;;;;5085942;28;20044;-70
2023/12/01 07:23:20;;;;;;;12.70;7.22;;;-2.80;99.90;;;;;;5121783;28;20043;-70
2023/12/01 07:25:50;;;;;;;13.63;7.03;;;-2.80;99.90;;;;;;5103503;28;20047;-70
2023/12/01 07:28:15;;;;;;;12.18;7.30;;;-2.80;99.90;;;;;;5113009;28;20048;-70
2023/12/01 07:30:41;;;;;;;10.10;6.55;;;-2.80;99.90;;;;;;5102725;28;20071;-71
2023/12/01 07:33:08;;;;;;;12.80;7.25;;;-2.90;99.90;;;;;;5095689;28;20076;-70
2023/12/01 07:35:34;;;;;;;13.45;7.05;;;-2.90;99.90;;;;;;5119769;28;20043;-70
2023/12/01 07:38:00;;;;;;;12.43;6.97;;;-2.90;99.90;;;;;;5124744;28;20051;-70
2023/12/01 07:40:27;;;;;;;9.98;6.35;;;-2.90;99.90;;;;;;5121919;28;20118;-70
2023/12/01 07:42:57;;;;;;;13.15;7.57;;;-2.90;99.90;;;;;;5125166;27;20170;-70
2023/12/01 07:45:25;;;;;;;13.93;7.05;;;-2.90;99.90;;;;;;5127203;27;20043;-70
2023/12/01 07:47:52;;;;;;;11.43;7.15;;;-2.90;99.90;;;;;;5125826;27;20168;-70
2023/12/01 07:50:19;;;;;;;14.10;7.82;;;-2.90;99.90;;;;;;5127442;27;20039;-70
2023/12/01 07:52:46;;;;;;;13.85;7.68;;;-2.90;99.90;;;;;;5111923;27;20035;-70
2023/12/01 07:55:12;;;;;;;10.70;7.18;;;-2.80;99.90;;;;;;5106705;28;20040;-70
2023/12/01 07:57:38;;;;;;;10.98;7.05;;;-2.80;99.90;;;;;;5141832;27;20070;-70
2023/12/01 08:00:05;;;;;;;12.98;7.07;;;-2.50;99.90;;;;;;5142961;27;20051;-70
2023/12/01 08:02:32;;;;;;;13.18;7.13;;;-2.80;99.90;;;;;;5144365;27;20047;-70
2023/12/01 08:04:58;;;;;;;11.95;7.32;;;-1.10;99.90;;;;;;5107004;27;20502;-71
2023/12/01 08:07:24;;;;;;;12.05;6.82;;;-2.30;99.90;;;;;;5107188;28;20036;-70
2023/12/01 08:09:50;;;;;;;14.95;7.60;;;-2.70;99.90;;;;;;5123931;27;20053;-70
2023/12/01 08:12:18;;;;;;;13.75;7.38;;;-2.70;99.90;;;;;;5128863;27;20040;-70
2023/12/01 08:14:44;;;;;;;12.32;7.50;;;-2.70;99.90;;;;;;5127595;27;20039;-70
2023/12/01 08:17:10;;;;;;;14.77;7.60;;;-1.90;99.90;;;;;;5123327;27;20047;-70
2023/12/01 08:19:36;;;;;;;10.85;6.68;;;-2.60;99.90;;;;;;5108712;27;20092;-71
2023/12/01 08:22:02;;;;;;;11.70;6.80;;;-2.60;99.90;;;;;;5127651;27;20047;-71
2023/12/01 08:24:27;;;;;;;13.05;7.57;;;-2.60;99.90;;;;;;5110424;27;20035;-70
2023/12/01 08:26:53;;;;;;;13.70;7.95;;;-2.60;99.90;;;;;;5127936;27;20043;-70
2023/12/01 08:29:19;;;;;;;12.15;7.20;;;-2.50;99.90;;;;;;5116654;27;20039;-70
2023/12/01 08:31:45;;;;;;;14.30;7.72;;;-2.50;99.90;;;;;;5115603;27;20049;-70
2023/12/01 08:34:11;;;;;;;13.38;7.63;;;-2.40;99.90;;;;;;5076126;27;20123;-71
2023/12/01 08:36:37;;;;;;;14.45;7.05;;;-2.30;99.90;;;;;;5100843;27;20063;-70
2023/12/01 08:39:04;;;;;;;16.45;7.28;;;-2.40;99.90;;;;;;5126336;27;20057;-70
2023/12/01 08:41:30;;;;;;;14.40;7.75;;;-2.50;99.90;;;;;;5116590;27;20051;-70
2023/12/01 08:43:56;;;;;;;13.10;8.50;;;-2.40;99.90;;;;;;5109574;27;20061;-70
2023/12/01 08:46:23;;;;;;;13.00;6.95;;;-2.30;99.90;;;;;;5113600;28;20077;-70
2023/12/01 08:48:49;;;;;;;11.52;7.13;;;-2.30;99.90;;;;;;5101703;27;20046;-70
2023/12/01 08:51:15;;;;;;;11.82;7.40;;;-2.20;99.90;;;;;;5087412;28;20040;-70
2023/12/01 08:53:41;;;;;;;14.00;7.90;;;-2.20;99.90;;;;;;5118099;27;20047;-70
2023/12/01 08:56:10;;;;;;;13.68;8.07;;;-2.20;99.90;;;;;;5134924;27;20039;-70
2023/12/01 08:58:36;;;;;;;15.73;9.40;;;-2.10;99.90;;;;;;5096901;27;20088;-70
2023/12/01 09:01:02;;;;;;;14.75;8.20;;;-2.00;99.90;;;;;;5111355;28;20055;-70
2023/12/01 09:03:28;;;;;;;14.77;8.25;;;-1.60;99.90;;;;;;5131811;27;20081;-69
2023/12/01 09:05:54;;;;;;;14.77;8.45;;;-2.00;99.90;;;;;;5120216;28;20047;-70
2023/12/01 09:08:19;;;;;;;15.68;8.15;;;-1.90;99.90;;;;;;5087685;28;20082;-68
2023/12/01 09:10:45;;;;;;;13.52;8.10;;;-1.90;99.90;;;;;;5086403;28;20051;-68
2023/12/01 09:13:11;;;;;;;13.88;7.90;;;-1.50;99.90;;;;;;5103628;28;20420;-68
2023/12/01 09:15:37;;;;;;;14.20;8.65;;;-1.70;99.90;;;;;;5100189;27;20032;-69
2023/12/01 09:18:03;;;;;;;18.80;8.45;;;-1.70;99.90;;;;;;5120853;28;20130;-69
2023/12/01 09:20:29;;;;;;;13.77;8.25;;;-1.60;99.90;;;;;;5104533;28;20087;-70
2023/12/01 09:22:55;;;;;;;13.63;7.55;;;-1.60;99.90;;;;;;5107953;28;20031;-70
2023/12/01 09:25:20;;;;;;;15.35;7.68;;;-1.60;99.90;;;;;;5100417;27;20068;-70
2023/12/01 09:27:47;;;;;;;14.27;7.38;;;-1.00;99.90;;;;;;5103415;28;20044;-70
2023/12/01 09:30:16;;;;;;;13.20;7.85;;;-0.90;99.90;;;;;;5091713;27;20047;-69
2023/12/01 09:32:45;;;;;;;13.95;8.30;;;-1.60;99.90;;;;;;5114012;27;20035;-70
2023/12/01 09:35:11;;;;;;;14.25;7.10;;;-1.50;99.90;;;;;;5112188;27;20043;-70
2023/12/01 09:37:37;;;;;;;11.82;7.70;;;-1.50;99.90;;;;;;5106581;27;20478;-70
2023/12/01 09:40:06;;;;;;;12.48;7.38;;;-1.30;99.90;;;;;;5084886;27;20062;-70
2023/12/01 09:42:33;;;;;;;13.95;7.55;;;-1.50;99.90;;;;;;5133665;27;20032;-69
2023/12/01 09:45:00;;;;;;;14.07;7.82;;;-1.50;99.90;;;;;;5110486;27;20063;-70
2023/12/01 09:47:30;;;;;;;12.68;7.07;;;-1.50;99.90;;;;;;5107012;28;20130;-70
2023/12/01 09:49:56;;;;;;;14.02;8.38;;;-1.50;99.90;;;;;;5086338;28;20032;-70
2023/12/01 09:52:22;;;;;;;14.55;8.10;;;-1.40;99.90;;;;;;5103111;28;20042;-70
2023/12/01 09:54:47;;;;;;;11.80;7.35;;;-1.40;99.90;;;;;;5078276;28;20074;-70
2023/12/01 09:57:13;;;;;;;17.88;8.30;;;-1.40;99.90;;;;;;5094025;27;20035;-70
2023/12/01 09:59:39;;;;;;;16.63;8.32;;;-1.30;99.90;;;;;;5122272;27;20408;-70
2023/12/01 10:02:05;;;;;;;13.85;8.13;;;-0.60;99.90;;;;;;5085166;28;20035;-70
2023/12/01 10:04:35;;;;;;;11.93;7.13;;;-0.70;99.90;;;;;;5121531;28;20046;-70
2023/12/01 10:07:03;;;;;;;15.55;8.00;;;0.00;99.90;;;;;;5109525;27;20043;-69
2023/12/01 10:09:33;;;;;;;13.95;7.18;;;0.70;99.90;;;;;;5122681;27;20035;-69
2023/12/01 10:12:09;;;;;;;13.95;7.22;;;0.20;99.90;;;;;;5125890;27;20036;-69
2023/12/01 10:14:38;;;;;;;;;;;0.00;99.90;;;;;;5114221;27;20043;-69
2023/12/01 10:17:07;;;;;;;13.35;8.02;;;-0.20;99.90;;;;;;5122890;27;19924;-69
2023/12/01 10:19:34;;;;;;;14.25;7.95;;;-0.30;99.90;;;;;;5133566;27;20046;-68
2023/12/01 10:22:00;;;;;;;11.43;6.88;;;-0.40;99.90;;;;;;5124043;27;20052;-69
2023/12/01 10:24:26;;;;;;;16.15;10.15;;;-0.10;99.90;;;;;;5094205;28;20563;-68
2023/12/01 10:26:54;;;;;;;12.40;6.75;;;0.10;99.90;;;;;;5110007;27;20038;-69
2023/12/01 10:29:30;;;;;;;12.30;7.18;;;-0.20;99.90;;;;;;5135479;27;20047;-68
2023/12/01 10:32:00;;;;;;;11.50;6.22;;;-0.20;99.90;;;;;;5101262;28;20499;-68
2023/12/01 10:34:26;;;;;;;12.05;6.60;;;-0.20;99.90;;;;;;5106224;27;20043;-70
2023/12/01 10:36:52;;;;;;;10.48;7.10;;;0.10;99.90;;;;;;5100837;28;20122;-69
2023/12/01 10:39:24;;;;;;;13.00;7.35;;;0.60;99.90;;;;;;5103443;27;20035;-68
2023/12/01 10:41:50;;;;;;;10.63;6.60;;;-0.40;99.90;;;;;;5104613;27;20129;-68
2023/12/01 10:44:19;;;;;;;12.63;6.97;;;-0.40;99.90;;;;;;5091548;28;20044;-69
2023/12/01 10:46:46;;;;;;;11.13;7.13;;;-0.40;99.90;;;;;;5111282;28;20039;-68
2023/12/01 10:49:17;;;;;;;11.32;6.82;;;-0.40;99.90;;;;;;5100285;27;20096;-68
2023/12/01 10:51:47;;;;;;;13.13;7.00;;;-1.00;99.90;;;;;;5129021;27;20036;-70
2023/12/01 10:54:14;;;;;;;10.00;6.60;;;-0.50;99.90;;;;;;5127277;28;20087;-67
2023/12/01 10:57:09;;;;;;;12.23;6.78;;;-0.50;99.90;;;;;;5105104;28;20051;-69
2023/12/01 10:59:37;;;;;;;13.38;7.70;;;-0.50;99.90;;;;;;5102839;28;20069;-67
2023/12/01 11:02:04;;;;;;;12.40;7.15;;;-0.40;99.90;;;;;;5119410;28;20047;-71
2023/12/01 11:04:33;;;;;;;11.02;7.20;;;-0.50;99.90;;;;;;5121251;28;20059;-68
2023/12/01 11:07:22;;;;;;;9.15;6.85;;;-0.40;99.90;;;;;;5106097;28;20362;-68
2023/12/01 11:10:13;;;;;;;11.05;7.47;;;-0.40;99.90;;;;;;5101129;28;20058;-68
2023/12/01 11:12:46;;;;;;;9.73;6.25;;;-0.40;99.90;;;;;;5106451;28;20035;-69
2023/12/01 11:15:19;;;;;;;14.20;7.97;;;-0.40;99.90;;;;;;5111377;28;20103;-69
2023/12/01 11:17:46;;;;;;;11.27;6.93;;;-0.40;99.90;;;;;;5101784;28;20043;-69
2023/12/01 11:20:43;;;;;;;11.85;6.50;;;-0.40;99.90;;;;;;5102560;28;20059;-68
2023/12/01 11:23:08;;;;;;;9.77;6.80;;;-0.40;99.90;;;;;;5094538;28;20070;-68
2023/12/01 11:25:39;;;;;;;9.50;6.00;;;-1.00;99.90;;;;;;5120286;28;20044;-68
2023/12/01 11:31:35;;;;;;;10.85;6.45;;;-0.30;99.90;;;;;;5119316;28;20047;-69
2023/12/01 11:34:04;;;;;;;11.32;6.85;;;-0.30;99.90;;;;;;5120842;28;20036;-69
2023/12/01 11:36:35;;;;;;;11.85;6.97;;;-0.30;99.90;;;;;;5101377;28;20100;-68
2023/12/01 11:41:41;;;;;;;10.88;7.25;;;-0.30;99.90;;;;;;5121362;28;20077;-69
2023/12/01 11:44:18;;;;;;;11.40;7.30;;;-0.30;99.90;;;;;;5100812;28;20047;-69
2023/12/01 11:46:44;;;;;;;12.95;8.32;;;-0.20;99.90;;;;;;5102093;28;20398;-68
2023/12/01 11:49:11;;;;;;;12.20;6.72;;;-0.30;99.90;;;;;;5100641;28;20048;-67
2023/12/01 11:51:37;;;;;;;12.88;7.18;;;-0.30;99.90;;;;;;5101361;28;20121;-68
2023/12/01 11:54:03;;;;;;;9.27;6.63;;;-0.40;99.90;;;;;;5101538;28;20442;-68
2023/12/01 11:56:33;;;;;;;13.10;7.38;;;-0.30;99.90;;;;;;5119803;28;20048;-68
2023/12/01 11:59:00;;;;;;;10.95;7.55;;;-0.40;99.90;;;;;;5103316;28;20035;-69
2023/12/01 12:01:26;;;;;;;13.07;7.90;;;-0.40;99.90;;;;;;5100531;28;20093;-69
2023/12/01 12:03:57;;;;;;;8.55;7.15;;;-0.40;99.90;;;;;;5120228;28;20153;-69
2023/12/01 12:06:24;;;;;;;11.93;7.90;;;-0.50;99.90;;;;;;5119066;28;20066;-68
2023/12/01 12:08:51;;;;;;;13.18;7.50;;;0.60;99.90;;;;;;5102074;28;20047;-68
2023/12/01 12:11:17;;;;;;;13.25;8.20;;;-0.50;99.90;;;;;;5105761;28;20048;-68
2023/12/01 12:13:44;;;;;;;13.13;8.02;;;-0.50;99.90;;;;;;5106758;27;20042;-68
2023/12/01 12:16:13;;;;;;;12.55;7.80;;;-0.40;99.90;;;;;;5105923;28;20407;-67
2023/12/01 12:18:39;;;;;;;12.60;8.68;;;0.20;99.90;;;;;;5104063;28;20086;-69
2023/12/01 12:21:05;;;;;;;13.20;8.55;;;-0.40;99.90;;;;;;5124082;28;20042;-68
2023/12/01 12:23:32;;;;;;;12.10;7.93;;;-0.50;99.90;;;;;;5122784;27;20101;-68
2023/12/01 12:26:17;;;;;;;12.07;8.20;;;-0.50;99.90;;;;;;5104827;28;20078;-68
2023/12/01 12:28:56;;;;;;;12.13;8.50;;;-0.50;99.90;;;;;;5105587;28;20047;-69
2023/12/01 12:31:36;;;;;;;11.68;8.93;;;-0.50;99.90;;;;;;5117618;27;20096;-68
2023/12/01 12:34:09;;;;;;;16.67;9.57;;;-0.50;99.90;;;;;;5124656;27;20052;-68
2023/12/01 12:36:37;;;;;;;12.38;9.10;;;-0.50;99.90;;;;;;5104484;27;20499;-68
2023/12/01 12:39:05;;;;;;;13.98;8.80;;;-0.50;99.90;;;;;;5104620;28;20043;-68
2023/12/01 12:41:36;;;;;;;17.02;8.75;;;-0.40;99.90;;;;;;5104673;28;20414;-68
2023/12/01 12:44:06;;;;;;;15.05;8.38;;;-0.40;99.90;;;;;;5121706;28;20043;-70